Time;durP1;ratioP1;P1;durP2;ratioP2;P2;SDS_P1;SDS_P2;PMS_P1;PMS_P2;Temp;Humidity;BMP_temperature;BMP_pressure;BME280_temperature;BME280_humidity;BME280_pressure;Samples;Min_cycle;Max_cycle;Signal;HPM_P1;HPM_P2
2021/07/21 00:01:58;;;;;;;;;;;;;;;18.24;67.40;98477.47;1706905;83;25151;-87
2021/07/21 00:04:24;;;;;;;;;;;;;;;18.20;67.40;98470.34;1706899;83;22163;-87
2021/07/21 00:06:54;;;;;;;;;;;;;;;18.18;67.41;98470.14;1711000;83;21284;-87
2021/07/21 00:09:26;;;;;;;;;;;;;;;18.16;67.43;98478.75;1706990;83;25092;-87
2021/07/21 00:14:38;;;;;;;;;;;;;;;18.10;67.45;98480.69;1710761;83;25096;-87
2021/07/21 00:17:23;;;;;;;;;;;;;;;18.10;67.46;98480.69;1707366;82;22738;-87
2021/07/21 00:20:06;;;;;;;;;;;;;;;18.09;67.48;98475.88;1709715;83;26015;-87
2021/07/21 00:22:36;;;;;;;;;;;;;;;18.08;67.52;98474.21;1711328;83;25262;-87
2021/07/21 00:25:03;;;;;;;;;;;;;;;18.05;67.51;98477.67;1710206;83;20270;-87
2021/07/21 00:27:29;;;;;;;;;;;;;;;18.04;67.51;98478.16;1704129;83;25113;-87
2021/07/21 00:29:55;;;;;;;;;;;;;;;18.06;67.50;98480.14;1712213;83;20942;-87
2021/07/21 00:32:21;;;;;;;;;;;;;;;18.07;67.50;98479.66;1707616;83;21032;-87
2021/07/21 00:34:47;;;;;;;;;;;;;;;18.05;67.47;98478.99;1711485;83;20840;-87
2021/07/21 00:37:19;;;;;;;;;;;;;;;18.01;67.44;98476.29;1709960;83;20197;-87
2021/07/21 00:39:47;;;;;;;;;;;;;;;18.00;67.41;98483.92;1686302;83;20867;-87
2021/07/21 00:42:15;;;;;;;;;;;;;;;17.95;67.37;98481.21;1708733;83;22575;-87
2021/07/21 00:44:44;;;;;;;;;;;;;;;17.90;67.35;98482.66;1707587;83;26202;-88
2021/07/21 00:47:10;;;;;;;;;;;;;;;17.84;67.33;98482.77;1710291;83;25285;-87
2021/07/21 00:49:41;;;;;;;;;;;;;;;17.80;67.33;98487.20;1707889;82;20212;-88
2021/07/21 00:52:08;;;;;;;;;;;;;;;17.78;67.34;98487.86;1708456;83;25146;-87
2021/07/21 00:54:35;;;;;;;;;;;;;;;17.70;67.33;98488.59;1709086;82;22248;-87
2021/07/21 00:57:05;;;;;;;;;;;;;;;17.64;67.34;98483.06;1705127;83;26891;-87
2021/07/21 00:59:37;;;;;;;;;;;;;;;17.61;67.32;98484.70;1710404;83;24684;-87
2021/07/21 01:02:03;;;;;;;;;;;;;;;17.57;67.33;98485.44;1707597;83;20277;-87
2021/07/21 01:04:29;;;;;;;;;;;;;;;17.54;67.36;98477.81;1710624;83;24970;-87
2021/07/21 01:06:55;;;;;;;;;;;;;;;17.56;67.36;98489.09;1707577;83;22066;-87
2021/07/21 01:09:22;;;;;;;;;;;;;;;17.51;67.33;98486.07;1704740;83;26039;-87
2021/07/21 01:12:05;;;;;;;;;;;;;;;17.49;67.33;98484.88;1710861;83;24416;-87
2021/07/21 01:14:32;;;;;;;;;;;;;;;17.47;67.31;98484.19;1707844;83;20571;-87
2021/07/21 01:17:05;;;;;;;;;;;;;;;17.47;67.28;98486.00;1711704;83;26395;-87
2021/07/21 01:19:49;;;;;;;;;;;;;;;17.45;67.30;98493.27;1705183;82;22085;-87
2021/07/21 01:22:19;;;;;;;;;;;;;;;17.42;67.26;98489.59;1684352;83;21355;-87
2021/07/21 01:25:04;;;;;;;;;;;;;;;17.41;67.24;98484.78;1710571;83;24671;-88
2021/07/21 01:27:41;;;;;;;;;;;;;;;17.39;67.20;98488.09;1712556;83;20250;-87
2021/07/21 01:30:08;;;;;;;;;;;;;;;17.37;67.16;98485.23;1707870;83;25050;-87
2021/07/21 01:32:35;;;;;;;;;;;;;;;17.33;67.14;98491.33;1707875;83;22083;-87
2021/07/21 01:35:08;;;;;;;;;;;;;;;17.34;67.13;98496.12;1706234;83;25688;-87
2021/07/21 01:37:37;;;;;;;;;;;;;;;17.36;67.15;98495.47;1709278;83;25067;-87
2021/07/21 01:40:05;;;;;;;;;;;;;;;17.36;67.13;98501.59;1706881;83;20326;-86
2021/07/21 01:42:34;;;;;;;;;;;;;;;17.33;67.11;98504.55;1709144;83;24818;-87
2021/07/21 01:45:00;;;;;;;;;;;;;;;17.28;67.09;98492.75;1705902;83;22118;-87
2021/07/21 01:47:31;;;;;;;;;;;;;;;17.24;67.10;98502.77;1710855;83;26177;-87
2021/07/21 01:49:56;;;;;;;;;;;;;;;17.27;67.09;98501.17;1706098;83;24478;-87
2021/07/21 01:52:24;;;;;;;;;;;;;;;17.31;67.10;98501.69;1705832;83;20630;-86
2021/07/21 01:54:54;;;;;;;;;;;;;;;17.31;67.09;98503.85;1709596;83;25634;-87
2021/07/21 01:57:25;;;;;;;;;;;;;;;17.27;67.07;98498.52;1712138;83;22829;-87
2021/07/21 01:59:55;;;;;;;;;;;;;;;17.28;67.08;98495.39;1708458;83;26025;-86
2021/07/21 02:02:26;;;;;;;;;;;;;;;17.25;67.06;98497.83;1712639;82;24607;-87
2021/07/21 02:04:51;;;;;;;;;;;;;;;17.27;67.02;98496.36;1708963;83;20449;-87
2021/07/21 02:07:19;;;;;;;;;;;;;;;17.28;66.99;98503.33;1707592;83;22241;-86
2021/07/21 02:09:46;;;;;;;;;;;;;;;17.25;66.99;98504.92;1712147;83;21745;-87
2021/07/21 02:12:13;;;;;;;;;;;;;;;17.29;66.98;98505.80;1706965;83;25962;-87
2021/07/21 02:14:41;;;;;;;;;;;;;;;17.27;66.92;98505.63;1715400;83;24494;-87
2021/07/21 02:17:14;;;;;;;;;;;;;;;17.28;66.91;98507.30;1685676;84;20284;-87
2021/07/21 02:19:44;;;;;;;;;;;;;;;17.26;66.86;98507.44;1714455;83;25039;-87
2021/07/21 02:22:10;;;;;;;;;;;;;;;17.31;66.82;98512.27;1713308;83;22070;-87
2021/07/21 02:24:36;;;;;;;;;;;;;;;17.26;66.82;98511.40;1711637;82;25942;-87
2021/07/21 02:27:03;;;;;;;;;;;;;;;17.28;66.81;98512.59;1688301;83;24422;-87
2021/07/21 02:29:29;;;;;;;;;;;;;;;17.32;66.84;98515.27;1713066;83;20491;-87
2021/07/21 02:32:06;;;;;;;;;;;;;;;17.33;66.88;98512.97;1711073;82;20275;-88
2021/07/21 02:34:35;;;;;;;;;;;;;;;17.33;66.88;98509.84;1682844;83;20531;-88
2021/07/21 02:37:12;;;;;;;;;;;;;;;17.31;66.87;98505.17;1711092;83;26050;-87
2021/07/21 02:39:36;;;;;;;;;;;;;;;17.25;66.87;98510.22;1714134;83;24460;-87
2021/07/21 02:42:02;;;;;;;;;;;;;;;17.17;66.82;98510.13;1713404;82;20226;-87
2021/07/21 02:44:28;;;;;;;;;;;;;;;17.14;66.78;98508.11;1712892;83;25025;-88
2021/07/21 02:46:54;;;;;;;;;;;;;;;17.13;66.74;98510.89;1719795;83;21979;-87
2021/07/21 02:49:23;;;;;;;;;;;;;;;17.09;66.69;98510.36;1720931;83;21041;-88
2021/07/21 02:51:56;;;;;;;;;;;;;;;17.03;66.64;98512.27;1719669;83;20284;-88
2021/07/21 02:54:33;;;;;;;;;;;;;;;16.99;66.62;98510.90;1748633;81;20456;-88
2021/07/21 02:57:00;;;;;;;;;;;;;;;16.94;66.56;98520.25;1731636;82;24957;-87
2021/07/21 02:59:28;;;;;;;;;;;;;;;16.90;66.57;98521.03;1763422;80;22175;-87
2021/07/21 03:01:56;;;;;;;;;;;;;;;16.81;66.54;98523.69;1767248;80;26138;-87
2021/07/21 03:04:23;;;;;;;;;;;;;;;16.80;66.55;98522.84;1732086;82;24518;-87
2021/07/21 03:06:51;;;;;;;;;;;;;;;16.80;66.60;98525.49;1771352;79;20327;-87
2021/07/21 03:09:23;;;;;;;;;;;;;;;16.76;66.60;98531.22;1767789;80;25032;-87
2021/07/21 03:11:51;;;;;;;;;;;;;;;16.69;66.61;98530.46;1768476;79;21967;-87
2021/07/21 03:14:20;;;;;;;;;;;;;;;16.63;66.61;98530.22;1731587;82;26765;-87
2021/07/21 03:16:48;;;;;;;;;;;;;;;16.58;66.61;98530.59;1700797;84;24522;-88
2021/07/21 03:19:15;;;;;;;;;;;;;;;16.52;66.61;98532.51;1717432;82;20304;-87
2021/07/21 03:21:42;;;;;;;;;;;;;;;16.46;66.64;98540.16;1715484;82;25014;-87
2021/07/21 03:24:14;;;;;;;;;;;;;;;16.41;66.68;98542.39;1710787;82;21916;-87
2021/07/21 03:26:41;;;;;;;;;;;;;;;16.35;66.68;98546.92;1766685;79;26061;-87
2021/07/21 03:29:08;;;;;;;;;;;;;;;16.24;66.72;98544.77;1739962;81;24352;-87
2021/07/21 03:31:35;;;;;;;;;;;;;;;16.19;66.81;98548.32;1769454;80;20267;-87
2021/07/21 03:34:05;;;;;;;;;;;;;;;16.17;66.86;98551.58;1734260;81;25045;-87
2021/07/21 03:36:39;;;;;;;;;;;;;;;16.13;66.94;98552.00;1767866;80;22071;-88
2021/07/21 03:39:11;;;;;;;;;;;;;;;16.04;67.02;98551.52;1772108;80;27027;-88
2021/07/21 03:41:39;;;;;;;;;;;;;;;16.03;67.10;98555.97;1771447;81;25222;-87
2021/07/21 03:44:06;;;;;;;;;;;;;;;15.99;67.19;98553.23;1738802;80;20238;-87
2021/07/21 03:46:39;;;;;;;;;;;;;;;15.94;67.27;98554.13;1763538;80;25135;-87
2021/07/21 03:49:05;;;;;;;;;;;;;;;15.97;67.35;98560.47;1760706;81;21516;-87
2021/07/21 03:51:32;;;;;;;;;;;;;;;15.95;67.47;98560.25;1763439;81;25948;-87
2021/07/21 03:53:59;;;;;;;;;;;;;;;15.97;67.52;98567.55;1763963;81;24413;-87
2021/07/21 03:56:26;;;;;;;;;;;;;;;16.03;67.62;98571.80;1763713;81;20461;-87
2021/07/21 03:58:52;;;;;;;;;;;;;;;16.06;67.74;98569.36;1764371;80;25036;-87
2021/07/21 04:01:18;;;;;;;;;;;;;;;16.11;67.82;98573.25;1766638;79;22029;-88
2021/07/21 04:03:46;;;;;;;;;;;;;;;16.18;67.89;98570.90;1762906;81;26046;-87
2021/07/21 04:06:14;;;;;;;;;;;;;;;16.21;67.95;98577.20;1762713;80;24625;-87
2021/07/21 04:08:42;;;;;;;;;;;;;;;16.23;67.98;98573.47;1762344;81;20214;-87
2021/07/21 04:11:12;;;;;;;;;;;;;;;16.26;68.01;98574.50;1760708;79;24907;-87
2021/07/21 04:13:41;;;;;;;;;;;;;;;16.33;68.03;98572.14;1735777;81;20608;-87
2021/07/21 04:16:08;;;;;;;;;;;;;;;16.34;68.08;98572.50;1734784;81;25958;-88
2021/07/21 04:18:35;;;;;;;;;;;;;;;16.30;68.17;98582.52;1763441;81;24778;-88
2021/07/21 04:21:06;;;;;;;;;;;;;;;16.31;68.24;98581.52;1736334;81;20183;-87
2021/07/21 04:23:42;;;;;;;;;;;;;;;16.40;68.28;98572.42;1761957;80;25571;-87
2021/07/21 04:26:10;;;;;;;;;;;;;;;16.50;68.33;98570.60;1738187;81;21779;-87
2021/07/21 04:28:37;;;;;;;;;;;;;;;16.56;68.37;98572.68;1761722;81;26001;-87
2021/07/21 04:31:03;;;;;;;;;;;;;;;16.65;68.41;98572.69;1761647;81;24402;-87
2021/07/21 04:33:33;;;;;;;;;;;;;;;16.69;68.46;98574.58;1740399;81;33311;-87
2021/07/21 04:36:00;;;;;;;;;;;;;;;16.73;68.51;98574.64;1739066;81;25032;-88
2021/07/21 04:38:27;;;;;;;;;;;;;;;16.75;68.59;98575.31;1761543;81;22153;-87
2021/07/21 04:40:53;;;;;;;;;;;;;;;16.80;68.59;98577.03;1763198;81;26024;-87
2021/07/21 04:43:19;;;;;;;;;;;;;;;16.87;68.61;98587.39;1759045;81;24527;-87
2021/07/21 04:45:52;;;;;;;;;;;;;;;16.95;68.64;98586.69;1762479;81;20476;-87
2021/07/21 04:48:16;;;;;;;;;;;;;;;17.05;68.67;98595.42;1753982;80;25199;-87
2021/07/21 04:50:44;;;;;;;;;;;;;;;17.11;68.66;98598.33;1760659;81;22005;-87
2021/07/21 04:53:11;;;;;;;;;;;;;;;17.14;68.66;98595.39;1761496;81;26026;-87
2021/07/21 04:55:37;;;;;;;;;;;;;;;17.20;68.62;98601.07;1762185;79;24543;-87
2021/07/21 04:58:03;;;;;;;;;;;;;;;17.25;68.56;98601.47;1763499;81;20306;-87
2021/07/21 05:00:32;;;;;;;;;;;;;;;17.30;68.51;98604.52;1762330;81;25216;-87
2021/07/21 05:03:06;;;;;;;;;;;;;;;17.24;68.41;98593.22;1762324;81;22085;-87
2021/07/21 05:05:33;;;;;;;;;;;;;;;17.33;68.29;98605.56;1762260;81;26056;-88
2021/07/21 05:08:00;;;;;;;;;;;;;;;17.34;68.17;98606.75;1762718;81;25108;-87
2021/07/21 05:10:26;;;;;;;;;;;;;;;17.33;68.07;98608.20;1762298;80;20223;-87
2021/07/21 05:12:52;;;;;;;;;;;;;;;17.33;67.96;98609.53;1762414;81;20845;-87
2021/07/21 05:15:18;;;;;;;;;;;;;;;17.35;67.87;98616.81;1761387;81;20356;-88
2021/07/21 05:17:44;;;;;;;;;;;;;;;17.35;67.82;98612.84;1760481;81;26027;-86
2021/07/21 05:20:11;;;;;;;;;;;;;;;17.34;67.74;98616.01;1762411;81;24589;-86
2021/07/21 05:22:37;;;;;;;;;;;;;;;17.37;67.66;98614.87;1759088;81;20189;-87
2021/07/21 05:25:03;;;;;;;;;;;;;;;17.38;67.63;98617.86;1762827;80;24716;-87
2021/07/21 05:27:30;;;;;;;;;;;;;;;17.43;67.61;98612.97;1759297;81;22751;-86
2021/07/21 05:29:56;;;;;;;;;;;;;;;17.50;67.57;98626.80;1761756;80;26153;-86
2021/07/21 05:32:22;;;;;;;;;;;;;;;17.54;67.52;98620.23;1763522;79;20261;-86
2021/07/21 05:34:48;;;;;;;;;;;;;;;17.50;67.39;98625.97;1762971;81;20206;-86
2021/07/21 05:37:21;;;;;;;;;;;;;;;17.47;67.25;98623.59;1761225;81;24812;-86
2021/07/21 05:39:45;;;;;;;;;;;;;;;17.49;67.15;98619.84;1726551;83;22039;-87
2021/07/21 05:42:11;;;;;;;;;;;;;;;17.61;67.09;98617.88;1699484;84;25981;-86
2021/07/21 05:44:37;;;;;;;;;;;;;;;17.69;67.01;98619.28;1710835;83;20279;-87
2021/07/21 05:47:03;;;;;;;;;;;;;;;17.74;66.94;98612.21;1705171;81;20470;-86
2021/07/21 05:49:29;;;;;;;;;;;;;;;17.86;66.88;98611.88;1722848;83;25008;-86
2021/07/21 05:51:55;;;;;;;;;;;;;;;17.96;66.83;98614.45;1723072;83;22008;-86
2021/07/21 05:54:21;;;;;;;;;;;;;;;18.00;66.77;98615.84;1733045;82;25994;-86
2021/07/21 05:56:47;;;;;;;;;;;;;;;18.07;66.72;98621.35;1732775;82;24472;-86
2021/07/21 05:59:13;;;;;;;;;;;;;;;18.04;66.61;98625.15;1729027;82;20290;-87
2021/07/21 06:01:39;;;;;;;;;;;;;;;18.03;66.46;98619.50;1733233;81;20774;-87
2021/07/21 06:04:08;;;;;;;;;;;;;;;18.04;66.37;98624.31;1723107;83;22129;-87
2021/07/21 06:06:34;;;;;;;;;;;;;;;18.01;66.26;98621.45;1732901;82;26079;-86
2021/07/21 06:09:01;;;;;;;;;;;;;;;18.04;66.14;98630.94;1733162;82;24506;-86
2021/07/21 06:11:27;;;;;;;;;;;;;;;18.06;66.04;98631.59;1723597;83;20335;-87
2021/07/21 06:13:57;;;;;;;;;;;;;;;18.04;65.90;98629.12;1732995;82;20236;-86
2021/07/21 06:16:20;;;;;;;;;;;;;;;18.10;65.83;98629.85;1733155;82;22017;-87
2021/07/21 06:18:46;;;;;;;;;;;;;;;18.16;65.79;98637.69;1732833;82;21056;-87
2021/07/21 06:21:12;;;;;;;;;;;;;;;18.21;65.73;98642.88;1703426;82;20817;-87
2021/07/21 06:23:38;;;;;;;;;;;;;;;18.28;65.73;98640.44;1733133;82;20227;-87
2021/07/21 06:26:04;;;;;;;;;;;;;;;18.33;65.69;98636.84;1733183;81;25034;-87
2021/07/21 06:28:35;;;;;;;;;;;;;;;18.38;65.67;98639.91;1733620;82;21949;-87
2021/07/21 06:30:58;;;;;;;;;;;;;;;18.35;65.62;98642.84;1731295;81;26880;-87
2021/07/21 06:33:29;;;;;;;;;;;;;;;18.31;65.46;98650.76;1724318;83;24534;-86
2021/07/21 06:35:55;;;;;;;;;;;;;;;18.35;65.39;98649.46;1723584;82;20238;-87
2021/07/21 06:38:21;;;;;;;;;;;;;;;18.35;65.31;98646.33;1732104;82;25082;-87
2021/07/21 06:40:48;;;;;;;;;;;;;;;18.27;65.16;98649.40;1724661;83;20404;-86
2021/07/21 06:43:18;;;;;;;;;;;;;;;18.25;65.08;98648.21;1724706;83;26038;-86
2021/07/21 06:45:44;;;;;;;;;;;;;;;18.36;65.05;98648.48;1722191;83;24478;-87
2021/07/21 06:48:14;;;;;;;;;;;;;;;18.42;64.98;98639.09;1702726;82;20789;-86
2021/07/21 06:50:38;;;;;;;;;;;;;;;18.51;64.96;98643.48;1767993;80;24566;-86
2021/07/21 06:53:04;;;;;;;;;;;;;;;18.62;64.93;98648.09;1770534;79;22107;-87
2021/07/21 06:55:30;;;;;;;;;;;;;;;18.68;64.92;98652.79;1772820;80;26140;-86
2021/07/21 06:57:56;;;;;;;;;;;;;;;18.73;64.87;98654.48;1767946;80;24508;-87
2021/07/21 07:00:22;;;;;;;;;;;;;;;18.76;64.79;98656.02;1770651;80;20205;-87
2021/07/21 07:02:48;;;;;;;;;;;;;;;18.74;64.66;98652.18;1770508;80;24950;-86
2021/07/21 07:05:15;;;;;;;;;;;;;;;18.80;64.60;98654.71;1771286;79;22116;-87
2021/07/21 07:07:41;;;;;;;;;;;;;;;18.84;64.52;98650.77;1766885;80;21024;-86
2021/07/21 07:10:07;;;;;;;;;;;;;;;18.90;64.50;98654.61;1771117;80;25391;-86
2021/07/21 07:12:33;;;;;;;;;;;;;;;18.96;64.45;98657.48;1761939;79;20145;-87
2021/07/21 07:14:59;;;;;;;;;;;;;;;19.00;64.42;98662.82;1758949;80;25739;-86
2021/07/21 07:17:25;;;;;;;;;;;;;;;19.00;64.33;98661.49;1769845;80;22026;-87
2021/07/21 07:19:52;;;;;;;;;;;;;;;19.04;64.26;98660.68;1769130;80;25986;-86
2021/07/21 07:22:18;;;;;;;;;;;;;;;19.10;64.19;98657.41;1771559;79;24488;-86
2021/07/21 07:24:44;;;;;;;;;;;;;;;19.18;64.10;98662.78;1769915;80;20245;-86
2021/07/21 07:27:11;;;;;;;;;;;;;;;19.25;64.07;98658.53;1772670;79;26007;-86
2021/07/21 07:29:37;;;;;;;;;;;;;;;19.35;64.04;98660.58;1772692;80;21964;-86
2021/07/21 07:32:03;;;;;;;;;;;;;;;19.42;63.95;98660.27;1771003;80;21185;-86
2021/07/21 07:34:29;;;;;;;;;;;;;;;19.48;63.88;98666.80;1767062;80;24503;-86
2021/07/21 07:36:55;;;;;;;;;;;;;;;19.52;63.81;98669.01;1770370;80;20221;-86
2021/07/21 07:39:22;;;;;;;;;;;;;;;19.58;63.71;98668.88;1763576;80;25024;-87
2021/07/21 07:41:48;;;;;;;;;;;;;;;19.64;63.72;98673.03;1768889;80;20898;-87
2021/07/21 07:44:14;;;;;;;;;;;;;;;19.71;63.72;98675.05;1765783;80;25983;-87
2021/07/21 07:46:40;;;;;;;;;;;;;;;19.78;63.64;98677.42;1770601;80;24463;-87
2021/07/21 07:49:09;;;;;;;;;;;;;;;19.82;63.54;98667.64;1772112;80;20209;-86
2021/07/21 07:51:36;;;;;;;;;;;;;;;19.93;63.44;98665.19;1771878;80;25201;-87
2021/07/21 07:54:03;;;;;;;;;;;;;;;20.03;63.41;98669.88;1769051;80;21931;-86
2021/07/21 07:56:30;;;;;;;;;;;;;;;20.06;63.25;98664.25;1768009;80;26197;-87
2021/07/21 07:58:56;;;;;;;;;;;;;;;20.11;63.12;98667.26;1770463;79;24486;-87
2021/07/21 08:01:22;;;;;;;;;;;;;;;20.17;63.06;98668.44;1768736;80;20250;-87
2021/07/21 08:03:48;;;;;;;;;;;;;;;20.20;62.99;98668.10;1769860;80;20911;-87
2021/07/21 08:06:17;;;;;;;;;;;;;;;20.23;62.89;98669.13;1766245;80;22847;-87
2021/07/21 08:08:45;;;;;;;;;;;;;;;20.29;62.78;98670.61;1769132;80;27228;-86
2021/07/21 08:11:12;;;;;;;;;;;;;;;20.39;62.79;98676.67;1767049;79;24590;-86
2021/07/21 08:13:42;;;;;;;;;;;;;;;20.44;62.71;98671.70;1768571;80;20507;-86
2021/07/21 08:16:09;;;;;;;;;;;;;;;20.53;62.65;98667.70;1766633;80;25125;-87
2021/07/21 08:18:35;;;;;;;;;;;;;;;20.57;62.56;98664.55;1769012;80;22214;-87
2021/07/21 08:21:01;;;;;;;;;;;;;;;20.62;62.47;98662.75;1770320;80;25937;-88
2021/07/21 08:23:27;;;;;;;;;;;;;;;20.57;62.24;98667.20;1770677;80;24435;-87
2021/07/21 08:25:53;;;;;;;;;;;;;;;20.64;62.15;98671.38;1771303;81;20181;-87
2021/07/21 08:28:19;;;;;;;;;;;;;;;20.70;62.04;98670.72;1769807;80;25039;-87
2021/07/21 08:30:45;;;;;;;;;;;;;;;20.81;61.98;98671.22;1765278;80;20901;-87
2021/07/21 08:33:12;;;;;;;;;;;;;;;20.93;61.93;98678.38;1767882;80;26104;-87
2021/07/21 08:35:38;;;;;;;;;;;;;;;21.01;61.86;98679.70;1765175;80;25090;-87
2021/07/21 08:38:06;;;;;;;;;;;;;;;21.09;61.71;98685.52;1764992;80;20272;-87
2021/07/21 08:40:34;;;;;;;;;;;;;;;21.09;61.56;98682.36;1772631;79;25858;-87
2021/07/21 08:42:59;;;;;;;;;;;;;;;21.20;61.56;98682.06;1771210;79;22147;-87
2021/07/21 08:45:25;;;;;;;;;;;;;;;21.32;61.49;98685.20;1734929;82;20979;-87
2021/07/21 08:47:52;;;;;;;;;;;;;;;21.44;61.36;98683.83;1710276;82;20256;-87
2021/07/21 08:50:18;;;;;;;;;;;;;;;21.58;61.29;98683.64;1691931;83;20153;-87
2021/07/21 08:52:45;;;;;;;;;;;;;;;21.71;61.16;98686.62;1704297;83;25080;-87
2021/07/21 08:55:12;;;;;;;;;;;;;;;21.80;61.07;98690.07;1702295;83;22073;-87
2021/07/21 08:57:38;;;;;;;;;;;;;;;21.89;61.04;98688.53;1699382;83;26003;-87
2021/07/21 09:00:08;;;;;;;;;;;;;;;21.85;60.82;98683.23;1663655;84;24470;-87
2021/07/21 09:02:35;;;;;;;;;;;;;;;21.70;60.47;98683.12;1698808;82;20535;-86
2021/07/21 09:05:02;;;;;;;;;;;;;;;21.78;60.37;98680.08;1705278;83;24998;-87
2021/07/21 09:07:28;;;;;;;;;;;;;;;21.91;60.33;98683.03;1690951;83;21908;-87
2021/07/21 09:09:55;;;;;;;;;;;;;;;21.91;60.08;98686.53;1681699;84;26052;-87
2021/07/21 09:12:21;;;;;;;;;;;;;;;22.00;60.03;98680.69;1703543;83;25366;-87
2021/07/21 09:14:47;;;;;;;;;;;;;;;22.14;59.99;98671.98;1703070;83;20306;-86
2021/07/21 09:17:14;;;;;;;;;;;;;;;22.31;59.96;98678.86;1701659;83;25028;-87
2021/07/21 09:19:42;;;;;;;;;;;;;;;22.38;59.78;98675.83;1703425;83;22075;-87
2021/07/21 09:22:29;;;;;;;;;;;;;;;22.39;59.62;98678.83;1698802;82;26084;-87
2021/07/21 09:25:10;;;;;;;;;;;;;;;22.45;59.52;98674.63;1698846;83;24498;-87
2021/07/21 09:27:36;;;;;;;;;;;;;;;22.52;59.37;98671.59;1671753;84;20294;-88
2021/07/21 09:30:03;;;;;;;;;;;;;;;22.63;59.23;98675.68;1664231;84;25035;-86
2021/07/21 09:32:29;;;;;;;;;;;;;;;22.69;59.14;98669.14;1665516;84;21885;-86
2021/07/21 09:34:55;;;;;;;;;;;;;;;22.82;59.01;98671.22;1677056;84;21033;-86
2021/07/21 09:37:22;;;;;;;;;;;;;;;22.96;58.87;98669.63;1679235;84;20822;-87
2021/07/21 09:39:52;;;;;;;;;;;;;;;23.06;58.70;98671.53;1704853;83;20185;-87
2021/07/21 09:42:29;;;;;;;;;;;;;;;23.15;58.52;98671.77;1687178;83;25618;-87
2021/07/21 09:44:54;;;;;;;;;;;;;;;23.16;58.31;98671.59;1706415;83;22642;-86
2021/07/21 09:47:22;;;;;;;;;;;;;;;23.14;58.05;98675.45;1711459;83;21022;-87
2021/07/21 09:49:49;;;;;;;;;;;;;;;23.07;57.79;98678.03;1712574;83;24454;-87
2021/07/21 09:52:21;;;;;;;;;;;;;;;22.99;57.50;98673.25;1751044;81;20261;-86
2021/07/21 09:55:05;;;;;;;;;;;;;;;22.91;57.25;98673.64;1757225;81;25073;-86
2021/07/21 09:57:34;;;;;;;;;;;;;;;22.94;57.03;98671.12;1751225;81;21996;-87
2021/07/21 10:00:22;;;;;;;;;;;;;;;23.02;56.90;98674.25;1726944;81;21523;-87
2021/07/21 10:02:48;;;;;;;;;;;;;;;23.25;56.93;98675.84;1753907;81;24595;-87
2021/07/21 10:05:19;;;;;;;;;;;;;;;23.41;56.72;98667.34;1748382;81;20343;-87
2021/07/21 10:08:02;;;;;;;;;;;;;;;23.58;56.64;98663.02;1755642;80;25069;-87
2021/07/21 10:10:22;;;;;;;;;;;;;;;23.68;56.44;98666.73;1750110;81;21769;-87
2021/07/21 10:12:59;;;;;;;;;;;;;;;23.58;56.11;98668.86;1746163;81;26030;-87
2021/07/21 10:15:26;;;;;;;;;;;;;;;23.45;55.83;98665.48;1752605;81;23985;-87
2021/07/21 10:18:04;;;;;;;;;;;;;;;23.44;55.53;98665.66;1730481;81;20220;-87
2021/07/21 10:20:31;;;;;;;;;;;;;;;23.51;55.26;98668.76;1683964;84;26116;-87
2021/07/21 10:23:04;;;;;;;;;;;;;;;23.69;55.17;98663.05;1719103;83;23382;-87
2021/07/21 10:25:32;;;;;;;;;;;;;;;23.86;55.01;98670.38;1716029;83;26638;-87
2021/07/21 10:27:58;;;;;;;;;;;;;;;23.94;54.77;98672.97;1716956;83;24511;-87
2021/07/21 10:30:26;;;;;;;;;;;;;;;23.87;54.46;98674.72;1720727;83;20652;-87
2021/07/21 10:32:58;;;;;;;;;;;;;;;23.81;54.22;98670.11;1705328;83;25040;-87
2021/07/21 10:35:25;;;;;;;;;;;;;;;23.83;54.04;98666.75;1697900;84;21968;-87
2021/07/21 10:37:57;;;;;;;;;;;;;;;23.82;53.77;98664.59;1720132;83;25350;-87
2021/07/21 10:40:25;;;;;;;;;;;;;;;23.95;53.65;98663.40;1703866;83;24691;-87
2021/07/21 10:42:53;;;;;;;;;;;;;;;24.06;53.49;98658.08;1706751;83;20294;-87
2021/07/21 10:45:22;;;;;;;;;;;;;;;24.12;53.30;98658.67;1700824;83;24983;-87
2021/07/21 10:47:56;;;;;;;;;;;;;;;24.07;53.01;98661.08;1707038;83;21990;-87
2021/07/21 10:50:28;;;;;;;;;;;;;;;24.03;52.77;98655.80;1710481;82;26018;-87
2021/07/21 10:53:13;;;;;;;;;;;;;;;24.00;52.55;98665.54;1712802;82;24496;-87
2021/07/21 10:55:45;;;;;;;;;;;;;;;24.02;52.44;98660.31;1707075;83;20321;-88
2021/07/21 11:00:56;;;;;;;;;;;;;;;23.95;52.00;98647.36;1702715;83;22173;-87
2021/07/21 11:03:24;;;;;;;;;;;;;;;23.98;51.86;98655.53;1712222;83;26503;-88
2021/07/21 11:06:05;;;;;;;;;;;;;;;24.12;51.79;98645.30;1702100;83;24474;-87
2021/07/21 11:08:32;;;;;;;;;;;;;;;24.27;51.73;98647.48;1720330;83;20318;-88
2021/07/21 11:10:59;;;;;;;;;;;;;;;24.38;51.72;98648.33;1718924;83;25141;-88
2021/07/21 11:13:29;;;;;;;;;;;;;;;24.54;51.68;98648.59;1694437;83;20170;-87
2021/07/21 11:16:01;;;;;;;;;;;;;;;24.65;51.56;98651.27;1723375;82;25666;-87
2021/07/21 11:18:29;;;;;;;;;;;;;;;24.60;51.29;98647.30;1714675;83;24509;-87
2021/07/21 11:21:06;;;;;;;;;;;;;;;24.41;50.96;98655.13;1710659;83;20336;-87
2021/07/21 11:23:43;;;;;;;;;;;;;;;24.23;50.73;98657.39;1714383;83;25101;-87
2021/07/21 11:28:56;;;;;;;;;;;;;;;23.98;50.49;98650.19;1733737;80;26305;-88
2021/07/21 11:31:44;;;;;;;;;;;;;;;23.94;50.44;98656.42;1739010;80;24519;-87
2021/07/21 11:34:12;;;;;;;;;;;;;;;23.89;50.39;98649.97;1728564;80;20248;-87
2021/07/21 11:36:50;;;;;;;;;;;;;;;23.88;50.36;98649.65;1738336;80;25180;-88
2021/07/21 11:39:34;;;;;;;;;;;;;;;23.82;50.25;98657.07;1691796;83;21982;-88
2021/07/21 11:42:00;;;;;;;;;;;;;;;23.70;50.11;98648.19;1665011;84;26165;-88
2021/07/21 11:44:29;;;;;;;;;;;;;;;23.76;50.15;98643.44;1709718;83;23860;-88
2021/07/21 11:46:59;;;;;;;;;;;;;;;23.86;50.15;98646.32;1708649;83;20594;-88
2021/07/21 11:49:26;;;;;;;;;;;;;;;24.04;50.22;98646.26;1707373;82;24959;-88
2021/07/21 11:51:54;;;;;;;;;;;;;;;24.22;50.18;98643.19;1709422;83;22176;-88
2021/07/21 11:54:21;;;;;;;;;;;;;;;24.34;50.09;98642.19;1710116;83;26798;-88
2021/07/21 11:56:48;;;;;;;;;;;;;;;24.37;49.88;98631.13;1719889;83;24427;-88
2021/07/21 11:59:17;;;;;;;;;;;;;;;24.51;49.88;98631.56;1715555;83;20237;-88
2021/07/21 12:01:47;;;;;;;;;;;;;;;24.73;49.98;98628.37;1692462;83;25046;-87
2021/07/21 12:04:16;;;;;;;;;;;;;;;24.86;49.88;98633.86;1718067;83;22845;-88
2021/07/21 12:06:50;;;;;;;;;;;;;;;24.89;49.65;98632.15;1716070;83;26184;-87
2021/07/21 12:09:18;;;;;;;;;;;;;;;24.83;49.45;98637.73;1718383;83;24455;-88
2021/07/21 12:11:55;;;;;;;;;;;;;;;24.71;49.29;98631.77;1717992;83;20226;-88
2021/07/21 12:14:26;;;;;;;;;;;;;;;24.44;48.95;98636.02;1716962;83;25016;-88
2021/07/21 12:16:54;;;;;;;;;;;;;;;24.29;48.76;98630.72;1711745;81;21946;-87
2021/07/21 12:19:26;;;;;;;;;;;;;;;24.15;48.57;98630.23;1719618;82;26707;-88
2021/07/21 12:22:03;;;;;;;;;;;;;;;24.16;48.59;98630.56;1719937;83;24302;-88
2021/07/21 12:24:33;;;;;;;;;;;;;;;24.15;48.58;98627.56;1723623;81;20496;-88
2021/07/21 12:27:07;;;;;;;;;;;;;;;24.25;48.66;98628.62;1713716;83;25675;-88
2021/07/21 12:29:36;;;;;;;;;;;;;;;24.36;48.71;98628.95;1715133;83;22025;-88
2021/07/21 12:32:04;;;;;;;;;;;;;;;24.49;48.61;98627.73;1718252;83;25462;-88
2021/07/21 12:34:30;;;;;;;;;;;;;;;24.51;48.51;98630.23;1726110;83;24401;-87
2021/07/21 12:36:55;;;;;;;;;;;;;;;24.48;48.45;98637.31;1743951;80;20256;-88
2021/07/21 12:39:27;;;;;;;;;;;;;;;24.32;48.33;98633.55;1677226;83;25045;-87
2021/07/21 12:41:54;;;;;;;;;;;;;;;24.08;48.13;98632.83;1663493;84;22798;-88
2021/07/21 12:44:28;;;;;;;;;;;;;;;23.94;48.10;98634.20;1712349;83;25525;-88
2021/07/21 12:47:11;;;;;;;;;;;;;;;23.74;48.01;98632.09;1722831;83;24494;-88
2021/07/21 12:49:38;;;;;;;;;;;;;;;23.76;48.15;98627.40;1716814;82;20304;-88
2021/07/21 12:52:05;;;;;;;;;;;;;;;23.94;48.26;98628.86;1729021;82;25757;-88
2021/07/21 12:54:34;;;;;;;;;;;;;;;24.11;48.32;98628.96;1726396;82;22216;-88
2021/07/21 12:57:00;;;;;;;;;;;;;;;24.26;48.38;98625.77;1730809;82;26246;-88
2021/07/21 12:59:36;;;;;;;;;;;;;;;24.29;48.23;98622.70;1729242;82;24381;-88
2021/07/21 13:02:08;;;;;;;;;;;;;;;24.35;48.13;98625.95;1729546;82;20379;-88
2021/07/21 13:04:34;;;;;;;;;;;;;;;24.38;48.02;98618.91;1772224;80;25174;-88